createdAt,value
2018-03-16T00:00:34.951Z,70.27
2018-03-16T00:03:02.451Z,82.63
2018-03-16T00:05:29.973Z,73.87
2018-03-16T00:07:58.215Z,70.77
2018-03-16T00:10:25.703Z,73.93
2018-03-16T00:12:53.959Z,79.47
2018-03-16T00:15:21.443Z,85.10
2018-03-16T00:17:49.686Z,76.10
2018-03-16T00:20:17.158Z,80.73
2018-03-16T00:22:44.646Z,75.23
2018-03-16T00:25:12.163Z,85.50
2018-03-16T00:27:39.630Z,80.87
2018-03-16T00:30:07.127Z,79.93
2018-03-16T00:32:34.658Z,80.47
2018-03-16T00:35:02.908Z,68.23
2018-03-16T00:37:30.382Z,73.07
2018-03-16T00:39:57.856Z,76.33
2018-03-16T00:42:26.109Z,73.53
2018-03-16T00:44:53.613Z,90.00
2018-03-16T00:47:21.116Z,88.57
2018-03-16T00:49:48.578Z,85.50
2018-03-16T00:52:16.064Z,90.33
2018-03-16T00:54:44.341Z,91.07
2018-03-16T00:57:12.610Z,96.73
2018-03-16T00:59:40.115Z,76.40
2018-03-16T01:02:07.619Z,81.10
2018-03-16T01:04:35.093Z,89.03
2018-03-16T01:07:03.382Z,78.07
2018-03-16T01:09:31.631Z,82.67
2018-03-16T01:11:59.211Z,68.87
2018-03-16T01:14:27.480Z,82.90
2018-03-16T01:16:54.957Z,78.97
2018-03-16T01:19:22.456Z,90.10
2018-03-16T01:21:49.957Z,75.13
2018-03-16T01:24:17.782Z,91.93
2018-03-16T01:26:45.266Z,86.87
2018-03-16T01:29:12.742Z,78.57
2018-03-16T01:31:40.986Z,70.67
2018-03-16T01:34:08.475Z,73.40
2018-03-16T01:36:36.724Z,75.60
2018-03-16T01:39:04.209Z,76.40
2018-03-16T01:41:31.679Z,66.87
2018-03-16T01:43:59.944Z,76.57
2018-03-16T01:46:27.427Z,88.30
2018-03-16T01:48:55.689Z,79.20
2018-03-16T01:51:23.923Z,75.97
2018-03-16T01:53:51.406Z,76.23
2018-03-16T01:56:18.914Z,77.83
2018-03-16T01:58:46.456Z,81.27
2018-03-16T02:01:14.813Z,79.23
2018-03-16T02:03:42.294Z,90.57
2018-03-16T02:06:09.771Z,93.50
2018-03-16T02:08:37.265Z,89.27
2018-03-16T02:11:04.741Z,97.50
2018-03-16T02:13:32.218Z,98.47
2018-03-16T02:16:00.473Z,100.73
2018-03-16T02:18:27.971Z,93.07
2018-03-16T02:20:55.442Z,75.17
2018-03-16T02:23:22.950Z,98.70
2018-03-16T02:25:50.434Z,85.40
2018-03-16T02:28:18.668Z,93.63
2018-03-16T02:30:46.129Z,90.43
2018-03-16T02:33:13.649Z,101.63
2018-03-16T02:35:41.124Z,76.87
2018-03-16T02:38:08.635Z,93.43
2018-03-16T02:40:36.115Z,92.90
2018-03-16T02:43:04.405Z,81.43
2018-03-16T02:45:31.871Z,105.07
2018-03-16T02:47:59.436Z,86.73
2018-03-16T02:50:26.901Z,90.10
2018-03-16T02:52:54.378Z,75.67
2018-03-16T02:55:21.851Z,75.33
2018-03-16T02:57:49.373Z,80.27
2018-03-16T03:00:16.839Z,86.03
2018-03-16T03:02:44.350Z,71.20
2018-03-16T03:05:12.595Z,71.93
2018-03-16T03:07:40.098Z,72.97
2018-03-16T03:10:08.358Z,87.67
2018-03-16T03:12:35.833Z,74.77
2018-03-16T03:15:04.085Z,72.53
2018-03-16T03:17:31.575Z,87.47
2018-03-16T03:19:59.814Z,67.00
2018-03-16T03:22:27.294Z,81.83
2018-03-16T03:24:55.567Z,74.03
2018-03-16T03:27:23.039Z,80.30
2018-03-16T03:29:51.278Z,75.93
2018-03-16T03:32:18.751Z,95.23
2018-03-16T03:34:46.259Z,87.40
2018-03-16T03:37:13.835Z,93.07
2018-03-16T03:39:42.031Z,88.43
2018-03-16T03:42:09.519Z,105.20
2018-03-16T03:44:37.764Z,85.67
2018-03-16T03:47:05.216Z,71.03
2018-03-16T03:49:32.703Z,85.90
2018-03-16T03:52:00.202Z,73.17
2018-03-16T03:54:27.686Z,82.57
2018-03-16T03:56:55.155Z,88.30
2018-03-16T03:59:22.711Z,57.80
2018-03-16T04:01:50.202Z,79.00
2018-03-16T04:04:18.069Z,90.47
2018-03-16T04:06:45.546Z,67.83
2018-03-16T04:09:13.827Z,68.57
2018-03-16T04:11:42.054Z,86.57
2018-03-16T04:14:09.545Z,97.17
2018-03-16T04:16:37.783Z,109.80
2018-03-16T04:19:05.272Z,113.27
2018-03-16T04:21:33.611Z,126.83
2018-03-16T04:24:01.096Z,111.63
2018-03-16T04:26:28.623Z,83.57
2018-03-16T04:28:56.087Z,67.13
2018-03-16T04:31:23.590Z,66.53
2018-03-16T04:33:51.064Z,80.93
2018-03-16T04:36:19.313Z,96.13
2018-03-16T04:38:46.974Z,87.83
2018-03-16T04:41:14.454Z,90.23
2018-03-16T04:43:42.703Z,96.37
2018-03-16T04:46:10.178Z,104.83
2018-03-16T04:48:38.444Z,113.03
2018-03-16T04:51:06.234Z,105.37
2018-03-16T04:53:33.734Z,95.37
2018-03-16T04:56:01.279Z,121.23
2018-03-16T04:58:28.806Z,97.10
2018-03-16T05:00:57.074Z,104.60
2018-03-16T05:03:25.319Z,99.97
2018-03-16T05:05:52.806Z,132.07
2018-03-16T05:08:20.282Z,123.20
2018-03-16T05:10:48.537Z,132.90
2018-03-16T05:13:16.025Z,137.07
2018-03-16T05:15:43.574Z,152.73
2018-03-16T05:18:11.060Z,137.37
2018-03-16T05:20:38.538Z,151.23
2018-03-16T05:23:06.012Z,146.77
2018-03-16T05:25:33.501Z,142.23
2018-03-16T05:28:00.979Z,138.90
2018-03-16T05:30:29.252Z,143.07
2018-03-16T05:32:57.492Z,160.33
2018-03-16T05:35:24.982Z,155.30
2018-03-16T05:37:53.238Z,159.83
2018-03-16T05:40:20.714Z,134.80
2018-03-16T05:42:49.019Z,129.53
2018-03-16T05:45:16.501Z,120.70
2018-03-16T05:47:44.027Z,124.67
2018-03-16T05:50:11.511Z,119.17
2018-03-16T05:52:39.063Z,119.47
2018-03-16T05:55:06.586Z,123.47
2018-03-16T05:57:34.834Z,108.00
2018-03-16T06:00:02.305Z,98.77
2018-03-16T06:02:29.819Z,122.80
2018-03-16T06:04:57.351Z,104.73
2018-03-16T06:07:25.587Z,80.37
2018-03-16T06:09:53.066Z,76.47
2018-03-16T06:12:20.555Z,78.97
2018-03-16T06:14:48.040Z,87.50
2018-03-16T06:17:15.525Z,95.07
2018-03-16T06:19:42.997Z,93.67
2018-03-16T06:22:10.459Z,105.27
2018-03-16T06:24:38.001Z,88.00
2018-03-16T06:27:05.470Z,91.13
2018-03-16T06:29:32.978Z,92.17
2018-03-16T06:32:00.439Z,73.83
2018-03-16T06:34:27.917Z,79.57
2018-03-16T06:36:55.426Z,81.83
2018-03-16T06:39:23.713Z,70.93
2018-03-16T06:41:51.942Z,63.57
2018-03-16T06:44:19.433Z,75.57
2018-03-16T06:46:46.896Z,74.87
2018-03-16T06:49:15.150Z,83.43
2018-03-16T06:51:42.620Z,63.43
2018-03-16T06:54:10.131Z,69.97
2018-03-16T06:56:37.629Z,71.97
2018-03-16T06:59:05.108Z,87.33
2018-03-16T07:01:33.358Z,76.97
2018-03-16T07:04:00.830Z,64.00
2018-03-16T07:06:28.346Z,69.43
2018-03-16T07:08:55.841Z,64.70
2018-03-16T07:11:23.341Z,59.83
2018-03-16T07:13:51.596Z,65.70
2018-03-16T07:16:19.074Z,66.70
2018-03-16T07:18:47.323Z,55.57
2018-03-16T07:21:14.834Z,43.27
2018-03-16T07:23:42.302Z,51.33
2018-03-16T07:26:09.790Z,48.33
2018-03-16T07:28:37.263Z,44.17
2018-03-16T07:31:04.744Z,52.73
2018-03-16T07:33:32.215Z,44.70
2018-03-16T07:35:59.696Z,43.67
2018-03-16T07:38:27.159Z,43.40
2018-03-16T07:40:54.659Z,39.90
2018-03-16T07:43:26.930Z,40.13
2018-03-16T07:46:00.353Z,43.63
2018-03-16T07:48:28.615Z,40.87
2018-03-16T07:50:56.867Z,37.17
2018-03-16T07:53:24.343Z,39.70
2018-03-16T07:55:51.828Z,46.23
2018-03-16T07:58:19.325Z,40.63
2018-03-16T08:00:46.804Z,56.20
2018-03-16T08:03:15.070Z,51.97
2018-03-16T08:05:42.558Z,48.23
2018-03-16T08:08:10.857Z,49.13
2018-03-16T08:10:38.348Z,44.10
2018-03-16T08:13:05.828Z,47.23
2018-03-16T08:15:33.312Z,42.47
2018-03-16T08:18:01.549Z,38.83
2018-03-16T08:20:29.740Z,45.20
2018-03-16T08:22:58.214Z,49.77
2018-03-16T08:25:25.980Z,45.20
2018-03-16T08:27:54.414Z,42.00
2018-03-16T08:30:21.999Z,41.63
2018-03-16T08:32:49.666Z,59.33
2018-03-16T08:38:09.837Z,47.20
2018-03-16T08:40:38.067Z,38.50
2018-03-16T08:43:10.319Z,44.73
2018-03-16T08:45:37.824Z,45.73
2018-03-16T08:48:05.436Z,57.87
2018-03-16T08:50:32.947Z,50.60
2018-03-16T08:53:00.429Z,45.60
2018-03-16T08:55:27.904Z,60.13
2018-03-16T08:57:55.515Z,59.93
2018-03-16T09:00:22.989Z,46.13
2018-03-16T09:02:50.556Z,44.47
2018-03-16T09:05:18.008Z,41.47
2018-03-16T09:07:46.111Z,58.67
2018-03-16T09:10:13.813Z,46.93
2018-03-16T09:12:41.369Z,42.20
2018-03-16T09:15:08.814Z,50.00
2018-03-16T09:17:37.074Z,45.80
2018-03-16T09:20:05.504Z,42.73
2018-03-16T09:22:33.010Z,46.23
2018-03-16T09:25:00.618Z,32.97
2018-03-16T09:27:28.142Z,69.40
2018-03-16T09:29:55.861Z,32.07
2018-03-16T09:32:23.553Z,36.60
2018-03-16T09:34:52.268Z,31.67
2018-03-16T09:37:19.770Z,34.20
2018-03-16T09:39:47.237Z,31.00
2018-03-16T09:42:17.203Z,35.53
2018-03-16T09:44:45.014Z,26.60
2018-03-16T09:47:13.654Z,33.77
2018-03-16T09:49:41.144Z,31.47
2018-03-16T09:52:09.026Z,24.47
2018-03-16T09:54:48.541Z,17.77
2018-03-16T09:57:16.107Z,21.53
2018-03-16T09:59:43.598Z,24.47
2018-03-16T10:02:11.129Z,24.53
2018-03-16T10:04:39.316Z,32.03
2018-03-16T10:07:06.845Z,31.07
2018-03-16T10:09:34.343Z,29.20
2018-03-16T10:12:01.877Z,24.07
2018-03-16T10:14:29.345Z,27.20
2018-03-16T10:16:56.835Z,26.27
2018-03-16T10:19:24.337Z,32.60
2018-03-16T10:21:52.671Z,29.13
2018-03-16T10:24:21.646Z,78.40
2018-03-16T10:26:49.896Z,54.93
2018-03-16T10:29:18.781Z,44.77
2018-03-16T10:31:46.396Z,45.37
2018-03-16T10:34:13.968Z,22.63
2018-03-16T10:36:41.747Z,19.70
2018-03-16T10:39:09.252Z,12.33
2018-03-16T10:41:39.260Z,7.57
2018-03-16T10:44:06.923Z,8.37
2018-03-16T10:46:34.410Z,8.93
2018-03-16T10:49:01.954Z,9.33
2018-03-16T10:51:29.492Z,23.40
2018-03-16T10:53:56.978Z,8.10
2018-03-16T10:56:24.520Z,7.40
2018-03-16T10:58:52.420Z,9.20
2018-03-16T11:04:14.434Z,6.00
2018-03-16T11:06:47.018Z,6.30
2018-03-16T11:09:14.985Z,5.20
2018-03-16T11:11:42.486Z,8.43
2018-03-16T11:14:09.997Z,5.43
2018-03-16T11:16:37.662Z,6.70
2018-03-16T11:19:05.164Z,6.93
2018-03-16T11:21:32.724Z,7.10
2018-03-16T11:24:01.094Z,5.77
2018-03-16T11:26:29.342Z,6.27
2018-03-16T11:28:57.583Z,9.57
2018-03-16T11:31:25.322Z,6.50
2018-03-16T11:33:54.394Z,7.73
2018-03-16T11:36:24.047Z,7.60
2018-03-16T11:38:51.792Z,6.87
2018-03-16T11:41:20.330Z,8.33
2018-03-16T11:43:49.668Z,5.53
2018-03-16T11:46:18.196Z,7.30
2018-03-16T11:48:45.791Z,7.60
2018-03-16T11:51:13.425Z,8.10
2018-03-16T11:53:41.651Z,9.77
2018-03-16T11:56:12.540Z,9.07
2018-03-16T11:58:40.017Z,7.77
2018-03-16T12:01:07.758Z,9.47
2018-03-16T12:03:35.446Z,10.07
2018-03-16T12:06:03.777Z,12.80
2018-03-16T12:08:34.586Z,14.37
2018-03-16T12:11:02.904Z,10.13
2018-03-16T12:13:30.366Z,13.37
2018-03-16T12:15:57.900Z,8.33
2018-03-16T12:18:25.778Z,21.27
2018-03-16T12:20:54.083Z,8.83
2018-03-16T12:23:21.623Z,9.20
2018-03-16T12:28:49.950Z,7.83
2018-03-16T12:31:14.630Z,8.57
2018-03-16T12:33:42.256Z,11.90
2018-03-16T12:36:09.939Z,5.70
2018-03-16T12:38:37.509Z,4.03
2018-03-16T12:41:05.010Z,4.20
2018-03-16T12:43:32.474Z,3.60
2018-03-16T12:45:59.936Z,4.20
2018-03-16T12:48:28.581Z,6.10
2018-03-16T12:50:56.822Z,3.77
2018-03-16T12:53:24.303Z,5.70
2018-03-16T12:55:51.777Z,5.30
2018-03-16T12:58:19.264Z,7.47
2018-03-16T13:00:47.319Z,6.57
2018-03-16T13:03:14.844Z,7.67
2018-03-16T13:05:42.334Z,10.90
2018-03-16T13:08:09.792Z,7.60
2018-03-16T13:10:37.266Z,10.20
2018-03-16T13:13:04.739Z,9.07
2018-03-16T13:15:32.994Z,8.77
2018-03-16T13:18:00.460Z,15.13
2018-03-16T13:20:27.998Z,11.97
2018-03-16T13:22:55.490Z,9.87
2018-03-16T13:25:23.016Z,10.80
2018-03-16T13:27:50.490Z,8.80
2018-03-16T13:30:17.981Z,10.50
2018-03-16T13:32:46.280Z,15.47
2018-03-16T13:35:13.765Z,11.53
2018-03-16T13:37:41.232Z,9.77
2018-03-16T13:40:08.766Z,12.40
2018-03-16T13:42:36.264Z,10.07
2018-03-16T13:45:03.769Z,10.13
2018-03-16T13:47:31.338Z,7.17
2018-03-16T13:49:58.889Z,8.87
2018-03-16T13:52:26.465Z,10.47
2018-03-16T13:54:53.948Z,10.40
2018-03-16T13:57:21.457Z,11.70
2018-03-16T13:59:49.142Z,6.10
2018-03-16T14:02:16.605Z,7.90
2018-03-16T14:04:44.088Z,8.77
2018-03-16T14:07:11.574Z,8.37
2018-03-16T14:09:39.082Z,7.83
2018-03-16T14:12:06.702Z,8.57
2018-03-16T14:14:34.207Z,7.63
2018-03-16T14:17:01.788Z,8.87
2018-03-16T14:19:29.528Z,8.63
2018-03-16T14:21:57.118Z,14.00
2018-03-16T14:24:24.641Z,11.87
2018-03-16T14:26:52.911Z,10.33
2018-03-16T14:29:20.435Z,23.73
2018-03-16T14:31:48.008Z,32.23
2018-03-16T14:34:16.584Z,40.90
2018-03-16T14:36:44.121Z,33.70
2018-03-16T14:39:11.848Z,34.33
2018-03-16T14:41:39.332Z,30.90
2018-03-16T14:44:08.650Z,38.87
2018-03-16T14:46:38.377Z,38.40
2018-03-16T14:49:09.587Z,37.63
2018-03-16T14:51:37.082Z,41.40
2018-03-16T14:54:04.601Z,56.47
2018-03-16T14:56:32.075Z,47.70
2018-03-16T14:58:59.550Z,52.90
2018-03-16T15:01:28.344Z,52.70
2018-03-16T15:03:58.182Z,58.13
2018-03-16T15:06:25.852Z,53.27
2018-03-16T15:08:53.377Z,49.03
2018-03-16T15:11:21.130Z,45.50
2018-03-16T15:13:48.736Z,48.13
2018-03-16T15:16:16.379Z,62.07
2018-03-16T15:18:44.129Z,58.60
2018-03-16T15:21:11.624Z,64.57
2018-03-16T15:23:39.111Z,67.80
2018-03-16T15:26:06.846Z,56.90
2018-03-16T15:28:35.486Z,58.43
2018-03-16T15:31:04.186Z,56.50
2018-03-16T15:33:31.776Z,58.97
2018-03-16T15:36:00.031Z,69.57
2018-03-16T15:38:28.648Z,73.97
2018-03-16T15:40:56.999Z,59.50
2018-03-16T15:43:29.218Z,57.90
2018-03-16T15:45:56.962Z,62.80
2018-03-16T15:48:24.415Z,53.27
2018-03-16T15:50:51.909Z,51.50
2018-03-16T15:53:20.192Z,54.97
2018-03-16T15:55:47.702Z,52.10
2018-03-16T15:58:15.182Z,50.50
2018-03-16T16:00:42.643Z,49.90
2018-03-16T16:03:15.918Z,50.40
2018-03-16T16:05:43.395Z,52.63
2018-03-16T16:08:11.063Z,44.37
2018-03-16T16:10:38.610Z,42.67
2018-03-16T16:13:06.108Z,45.47
2018-03-16T16:15:34.365Z,51.23
2018-03-16T16:18:02.652Z,41.70
2018-03-16T16:20:30.114Z,52.37
2018-03-16T16:22:58.362Z,56.37
2018-03-16T16:25:25.835Z,50.00
2018-03-16T16:27:53.339Z,43.10
2018-03-16T16:30:22.539Z,54.40
2018-03-16T16:32:50.109Z,53.20
2018-03-16T16:35:17.668Z,53.87
2018-03-16T16:37:45.164Z,59.70
2018-03-16T16:40:13.393Z,44.13
2018-03-16T16:42:41.157Z,68.90
2018-03-16T16:45:08.647Z,65.57
2018-03-16T16:47:36.106Z,76.57
2018-03-16T16:50:03.619Z,73.23
2018-03-16T16:52:31.845Z,87.33
2018-03-16T16:54:59.429Z,86.10
2018-03-16T16:57:27.604Z,78.40
2018-03-16T16:59:55.632Z,85.87
2018-03-16T17:02:23.300Z,88.87
2018-03-16T17:04:50.783Z,94.27
2018-03-16T17:07:18.270Z,85.17
2018-03-16T17:09:45.773Z,93.90
2018-03-16T17:12:13.297Z,94.50
2018-03-16T17:14:41.776Z,94.10
2018-03-16T17:17:10.021Z,88.03
2018-03-16T17:19:37.497Z,77.00
2018-03-16T17:22:05.015Z,74.63
2018-03-16T17:24:32.504Z,74.63
2018-03-16T17:27:00.718Z,88.03
2018-03-16T17:29:28.960Z,72.83
2018-03-16T17:31:56.453Z,74.60
2018-03-16T17:34:25.085Z,66.83
2018-03-16T17:36:53.236Z,75.17
2018-03-16T17:39:20.743Z,81.73
2018-03-16T17:41:48.550Z,70.80
2018-03-16T17:44:17.807Z,75.90
2018-03-16T17:46:47.346Z,64.03
2018-03-16T17:49:15.574Z,71.57
2018-03-16T17:51:43.063Z,65.73
2018-03-16T17:54:10.560Z,60.23
2018-03-16T17:56:38.055Z,63.70
2018-03-16T17:59:05.519Z,55.07
2018-03-16T18:01:33.230Z,55.50
2018-03-16T18:04:01.506Z,46.20
2018-03-16T18:06:30.243Z,49.50
2018-03-16T18:08:58.502Z,45.67
2018-03-16T18:11:26.720Z,46.80
2018-03-16T18:13:54.266Z,32.17
2018-03-16T18:16:21.739Z,41.77
2018-03-16T18:18:49.309Z,54.53
2018-03-16T18:21:17.555Z,43.57
2018-03-16T18:23:45.048Z,46.77
2018-03-16T18:26:12.528Z,48.13
2018-03-16T18:28:40.026Z,52.73
2018-03-16T18:31:07.506Z,49.53
2018-03-16T18:33:34.986Z,38.60
2018-03-16T18:36:03.236Z,38.20
2018-03-16T18:38:30.809Z,44.53
2018-03-16T18:40:58.312Z,42.43
2018-03-16T18:43:25.791Z,51.80
2018-03-16T18:45:53.288Z,43.33
2018-03-16T18:48:20.764Z,39.77
2018-03-16T18:50:49.013Z,41.90
2018-03-16T18:53:16.480Z,44.33
2018-03-16T18:55:43.999Z,32.97
2018-03-16T18:58:11.467Z,35.17
2018-03-16T19:00:38.979Z,38.00
2018-03-16T19:03:06.505Z,32.47
2018-03-16T19:05:33.982Z,40.23
2018-03-16T19:08:02.222Z,35.73
2018-03-16T19:10:29.686Z,46.13
2018-03-16T19:12:57.200Z,43.30
2018-03-16T19:15:24.686Z,33.20
2018-03-16T19:17:52.221Z,41.63
2018-03-16T19:20:19.745Z,30.77
2018-03-16T19:22:47.231Z,39.30
2018-03-16T19:25:15.486Z,47.40
2018-03-16T19:27:42.961Z,49.10
2018-03-16T19:30:11.207Z,50.97
2018-03-16T19:32:38.707Z,42.20
2018-03-16T19:35:06.959Z,43.40
2018-03-16T19:37:35.263Z,45.03
2018-03-16T19:40:02.761Z,41.33
2018-03-16T19:42:30.260Z,55.10
2018-03-16T19:44:58.538Z,57.20
2018-03-16T19:47:26.767Z,52.57
2018-03-16T19:49:54.270Z,55.77
2018-03-16T19:52:22.610Z,48.90
2018-03-16T19:54:50.086Z,57.40
2018-03-16T19:57:17.555Z,65.40
2018-03-16T19:59:45.025Z,47.43
2018-03-16T20:02:13.263Z,63.93
2018-03-16T20:04:40.740Z,55.97
2018-03-16T20:07:08.203Z,63.83
2018-03-16T20:09:35.678Z,52.43
2018-03-16T20:12:03.938Z,62.17
2018-03-16T20:14:31.414Z,60.50
2018-03-16T20:16:59.726Z,71.77
2018-03-16T20:19:27.246Z,58.53
2018-03-16T20:21:54.724Z,66.67
2018-03-16T20:24:23.086Z,60.77
2018-03-16T20:26:50.575Z,57.13
2018-03-16T20:29:18.166Z,60.87
2018-03-16T20:31:45.655Z,57.57
2018-03-16T20:34:13.126Z,56.63
2018-03-16T20:36:41.372Z,56.27
2018-03-16T20:39:08.841Z,62.50
2018-03-16T20:41:36.372Z,53.30
2018-03-16T20:44:03.873Z,51.67
2018-03-16T20:46:31.372Z,47.07
2018-03-16T20:48:58.845Z,54.30
2018-03-16T20:51:26.442Z,51.03
2018-03-16T20:53:53.920Z,45.43
2018-03-16T20:56:21.421Z,50.43
2018-03-16T20:58:48.949Z,60.57
2018-03-16T21:01:17.184Z,56.23
2018-03-16T21:03:44.677Z,72.40
2018-03-16T21:06:12.933Z,59.70
2018-03-16T21:08:40.402Z,78.47
2018-03-16T21:11:08.655Z,71.37
2018-03-16T21:13:36.123Z,68.97
2018-03-16T21:16:03.599Z,69.33
2018-03-16T21:18:31.865Z,65.13
2018-03-16T21:20:59.340Z,74.27
2018-03-16T21:23:27.640Z,61.63
2018-03-16T21:25:55.118Z,70.90
2018-03-16T21:28:22.614Z,66.87
2018-03-16T21:30:50.692Z,74.57
2018-03-16T21:33:18.288Z,67.30
2018-03-16T21:35:45.725Z,71.73
2018-03-16T21:38:14.081Z,74.23
2018-03-16T21:40:41.568Z,79.47
2018-03-16T21:43:09.843Z,74.67
2018-03-16T21:45:38.079Z,75.57
2018-03-16T21:48:05.561Z,75.47
2018-03-16T21:50:33.034Z,93.57
2018-03-16T21:53:01.279Z,91.87
2018-03-16T21:55:28.812Z,76.17
2018-03-16T21:57:56.275Z,82.00
2018-03-16T22:00:23.857Z,86.73
2018-03-16T22:02:54.121Z,71.93
2018-03-16T22:05:22.397Z,88.87
2018-03-16T22:07:51.779Z,85.93
2018-03-16T22:10:19.343Z,76.27
2018-03-16T22:12:46.818Z,82.93
2018-03-16T22:15:15.098Z,73.27
2018-03-16T22:17:42.562Z,80.57
2018-03-16T22:20:10.072Z,83.97
2018-03-16T22:22:37.646Z,77.53
2018-03-16T22:25:06.220Z,72.93
2018-03-16T22:27:33.787Z,66.20
2018-03-16T22:30:02.018Z,80.37
2018-03-16T22:32:29.621Z,79.40
2018-03-16T22:34:57.880Z,76.80
2018-03-16T22:37:25.395Z,72.60
2018-03-16T22:39:53.657Z,81.43
2018-03-16T22:42:21.154Z,75.60
2018-03-16T22:44:48.754Z,67.73
2018-03-16T22:47:16.227Z,79.00
2018-03-16T22:49:43.701Z,84.90
2018-03-16T22:52:11.947Z,85.20
2018-03-16T22:54:39.448Z,76.80
2018-03-16T22:57:06.950Z,63.00
2018-03-16T22:59:34.509Z,66.47
2018-03-16T23:02:01.977Z,78.57
2018-03-16T23:04:29.463Z,82.73
2018-03-16T23:06:56.935Z,81.40
2018-03-16T23:09:25.183Z,82.33
2018-03-16T23:11:52.871Z,64.10
2018-03-16T23:14:20.351Z,66.63
2018-03-16T23:16:47.815Z,85.70
2018-03-16T23:19:15.309Z,69.07
2018-03-16T23:21:42.820Z,71.47
2018-03-16T23:24:11.060Z,63.93
2018-03-16T23:26:38.550Z,78.27
2018-03-16T23:29:06.840Z,78.67
2018-03-16T23:31:34.321Z,62.93
2018-03-16T23:34:01.783Z,71.53
2018-03-16T23:36:29.286Z,78.97
2018-03-16T23:38:56.752Z,73.00
2018-03-16T23:41:24.224Z,74.97
2018-03-16T23:43:52.442Z,89.20
2018-03-16T23:46:20.060Z,94.23
2018-03-16T23:48:47.547Z,80.67
2018-03-16T23:51:15.034Z,77.10
2018-03-16T23:53:42.520Z,86.73
2018-03-16T23:56:10.006Z,83.30
2018-03-16T23:58:37.486Z,81.97
